Sunday, October 22, 2017, 8:37 PM EDT
Back to Local

KMMU, Morristown Municipal

Location: Morristown, NJ, United States Lat: 40.8
Local Time: 8:37 PM EDT ( 0:37 GMT) Lon: -74.417
Time Zone: US/Eastern Elev: 187 ft

Show me the last for .
Show Coded

Time T Td Feel RH Dir Speed Gust Alt SLP Vis Weather Sky Remarks
2017-10-22 19:45 54 50 - 87 - Calm - 30.37 - 10 CLR None
2017-10-22 18:45 63 52 - 67 120° 3 - 30.34 - 10 CLR None
2017-10-22 17:45 70 50 - 49 150° 6 - 30.34 - 10 SCT200 None
2017-10-22 16:45 75 46 - 36 170° 6 - 30.34 - 10 SCT200 None
2017-10-22 15:45 75 45 - 33 180° 7 - 30.34 - 10 SCT200 None
2017-10-22 14:45 75 45 - 33 190° 6 - 30.34 - 10 SCT200 None
2017-10-22 13:45 75 45 - 33 210° 6 - 30.37 - 10 FEW200 None
2017-10-22 12:45 75 45 - 33 170° 7 - 30.39 - 10 FEW200 None
2017-10-22 11:45 72 48 76 43 210° 3 - 30.41 - 10 SCT250 None
2017-10-22 10:45 63 48 - 59 - Calm - 30.42 - 10 BKN250 None
2017-10-22 09:45 54 48 - 81 - Calm - 30.43 - 10 BKN250 None
2017-10-22 08:45 46 45 - 93 - Calm - 30.44 - 10 BKN250 None
2017-10-22 07:45 41 39 - 93 - Calm - 30.42 - 10 MIFG BKN250 None
2017-10-22 06:45 39 39 - 100 - Calm - 30.40 - 10 MIFG SCT250 None
2017-10-22 06:35 37 37 - 100 - Calm - 30.39 - 10 CLR None
2017-10-22 06:15 37 37 - 100 - Calm - 30.39 - 3 BR SCT002 None
2017-10-22 05:55 37 37 - 100 - Calm - 30.39 - 0 BR BKN002 None
2017-10-22 05:35 37 37 - 100 - Calm - 30.38 - 10 CLR None
2017-10-22 05:15 39 39 - 100 - Calm - 30.38 - 10 SCT002 None
2017-10-22 04:55 37 37 - 100 - Calm - 30.37 - 7 SCT002 None
2017-10-22 04:35 37 37 - 100 - Calm - 30.37 - 0 BR VV005 None
2017-10-22 04:15 37 37 - 100 - Calm - 30.36 - 10 SCT002 None
2017-10-22 03:55 39 39 - 100 - Calm - 30.37 - 0 FG BKN002 None
2017-10-22 03:35 37 37 - 100 - Calm - 30.36 - 10 CLR None
2017-10-22 03:15 39 39 - 100 - Calm - 30.37 - 0 BR VV005 Variable visibility
2017-10-22 02:55 39 37 - 93 - Calm - 30.37 - 1 BR VV007 Variable visibility
2017-10-22 02:35 39 39 - 100 - Calm - 30.37 - 10 CLR None
2017-10-22 02:15 41 39 - 93 - Calm - 30.36 - 10 SCT002 None
2017-10-22 01:55 39 39 - 100 - Calm - 30.37 - 0 FG BKN002 Variable visibility
2017-10-22 01:35 39 39 - 100 - Calm - 30.37 - 5 BR CLR None
2017-10-22 01:15 41 39 - 93 - Calm - 30.37 - 10 CLR None
2017-10-22 00:55 41 41 - 100 - Calm - 30.37 - 1 BR SCT002 None
2017-10-22 00:35 41 41 - 100 - Calm - 30.37 - 1 BR SCT002 Variable visibility
2017-10-22 00:15 43 41 - 93 - Calm - 30.37 - 2 BR CLR Variable visibility
2017-10-21 23:55 43 43 - 100 - Calm - 30.37 - 10 CLR None
2017-10-21 23:35 43 41 - 93 - Calm - 30.37 - 10 CLR None
2017-10-21 23:15 45 43 - 93 - Calm - 30.37 - 10 CLR None
2017-10-21 22:50 43 43 - 100 - Calm - 30.37 - 10 CLR None
2017-10-21 22:35 45 43 - 93 - Calm - 30.37 - 10 CLR None
2017-10-21 21:45 48 46 - 93 - Calm - 30.37 - 10 BKN120 None
2017-10-21 20:45 48 46 - 93 - Calm - 30.36 - 10 BKN120 None

Support USWX by starting your Amazon purchase here.